Crest (411) Station Data

Red Flag Warning: No
Fire Weather Zone: 250
SDGE Region: Eastern
Lat/Lon: 32.812/-116.853

Observations

Time Wind Speed/Gust Temp(F) RH Fuel Moist Fuel Temp(F) Dewpt(F) Tmax(F) Tmin(F) Accum Precip 10-min Precip SL Press(mb)
5/24 8:30am 300 5 G 8 65° 73% - - 56° 66.9° 53.5° - - 886.0
5/24 8:20am 156 1 G 3 66° 64% - - 53° 66.7° 53.5° - - 883.0
5/24 8:10am 156 1 G 4 63° 75% - - 55° 65.1° 53.5° - - 887.0
5/24 8:00am 54 2 G 5 61° 94% - - 59° 64.6° 53.5° - - 895.0
5/24 7:50am 69 3 G 6 58° 100% - - 58° 64.6° 53.5° - - 906.0
5/24 7:40am 68 3 G 6 57° 100% - - 57° 64.6° 53.5° - - 923.0
5/24 7:30am 58 1 G 3 56° 100% - - 56° 64.6° 53.5° - - 923.0
5/24 7:20am 277 1 G 2 56° 100% - - 56° 64.6° 53.5° - - 922.0
5/24 7:10am 75 1 G 3 55° 100% - - 55° 64.6° 53.5° - - 922.0
5/24 7:00am 70 3 G 5 55° 100% - - 55° 64.6° 53.5° - - 922.0
5/24 6:50am 347 2 G 6 56° 100% - - 56° 64.6° 53.5° - - 922.0
5/24 6:40am 243 4 G 8 55° 100% - - 55° 64.6° 53.5° - - 922.0
5/24 6:30am 254 5 G 10 55° 100% - - 55° 64.6° 53.5° - - 922.0
5/24 6:20am 300 7 G 9 56° 100% - - 56° 64.6° 53.5° - - 911.0
5/24 6:10am 301 7 G 9 56° 96% - - 55° 64.6° 53.5° - - 894.0
5/24 6:00am 308 7 G 10 61° 61% - - 48° 64.6° 53.5° - - 879.0
5/24 5:50am 32 4 G 5 64° 50% - - 45° 64.6° 53.5° - - 876.0
5/24 5:40am 30 5 G 6 62° 56% - - 47° 64.5° 53.5° - - 878.0
5/24 5:30am 38 5 G 7 61° 64% - - 49° 64.5° 53.5° - - 881.0
5/24 5:20am 46 4 G 8 60° 73% - - 52° 64.5° 53.5° - - 885.0
5/24 5:10am 39 4 G 7 59° 91% - - 56° 64.5° 53.5° - - 894.0
5/24 5:00am 38 3 G 6 57° 100% - - 57° 64.5° 53.5° - - 920.0
5/24 4:50am 46 4 G 7 56° 100% - - 56° 64.5° 53.5° - - 922.0
5/24 4:40am 31 4 G 6 55° 100% - - 55° 64.5° 53.5° - - 922.0
5/24 4:30am 350 3 G 4 54° 100% - - 54° 64.5° 53.6° - - 922.0
5/24 4:20am 2 2 G 3 55° 100% - - 55° 64.5° 54.1° - - 922.0
5/24 4:10am 42 2 G 3 55° 100% - - 55° 64.5° 54.6° - - 922.0
5/24 4:00am 73 1 G 2 55° 100% - - 55° 64.5° 54.6° - - 922.0
5/24 3:50am 62 1 G 2 55° 100% - - 55° 64.5° 54.6° - - 922.0
5/24 3:40am 70 1 G 4 55° 100% - - 55° 64.5° 54.6° - - 922.0
5/24 3:30am 327 3 G 5 55° 100% - - 55° 64.5° 54.7° - - 922.0
5/24 3:20am 294 4 G 6 56° 100% - - 56° 64.5° 55.6° - - 922.0
5/24 3:10am 314 4 G 7 58° 95% - - 57° 64.5° 56.4° - - 900.0
5/24 3:00am 182 2 G 4 60° 85% - - 56° 64.5° 59.4° - - 889.0
5/24 2:50am 249 1 G 3 62° 75% - - 54° 64.5° 60.5° - - 886.0
5/24 2:40am 21 2 G 2 62° 74% - - 54° 64.5° 60.9° - - 886.0
5/24 2:30am 360 2 G 3 62° 82% - - 56° 64.5° 60.9° - - 889.0
5/24 2:20am 339 1 G 2 61° 84% - - 56° 64.5° 60.9° - - 890.0
5/24 2:10am 126 0 G 2 62° 81% - - 56° 64.5° 61.4° - - 888.0
5/24 2:00am 0 0 G 0 62° 79% - - 55° 64.5° 61.5° - - 888.0
5/24 1:50am 272 0 G 1 63° 77% - - 56° 64.5° 61.5° - - 887.0
5/24 1:40am 315 0 G 1 63° 78% - - 56° 64.5° 61.5° - - 887.0
5/24 1:30am 278 1 G 2 63° 78% - - 56° 64.5° 61.5° - - 887.0
5/24 1:20am 242 0 G 2 63° 78% - - 57° 64.5° 61.5° - - 888.0
5/24 1:10am 270 2 G 3 64° 78% - - 57° 64.5° 61.5° - - 888.0
5/24 1:00am 78 2 G 5 64° 76% - - 57° 64.5° 61.5° - - 887.0
5/24 12:50am 51 3 G 5 63° 83% - - 58° 64.1° 61.5° - - 890.0
5/24 12:40am 16 1 G 3 62° 92% - - 60° 63.1° 61.5° - - 893.0
5/24 12:30am 332 1 G 2 62° 93% - - 60° 62.6° 61.5° - - 894.0
5/24 12:20am 18 1 G 3 62° 91% - - 59° 62.6° 61.5° - - 893.0
5/24 12:10am 37 1 G 3 62° 89% - - 59° 62.6° 61.9° - - 892.0
5/24 12:00am 64 1 G 3 62° 87% - - 58° 85.6° 59.1° - - 891.0
5/23 11:50pm 131 1 G 3 64° 80% - - 57° 85.6° 59.1° - - 889.0
5/23 11:40pm 0 0 G 0 65° 75% - - 57° 85.6° 59.1° - - 887.0
5/23 11:30pm 96 0 G 2 66° 72% - - 56° 85.6° 59.1° - - 886.0
5/23 11:20pm 282 0 G 1 67° 70% - - 57° 85.6° 59.1° - - 885.0
5/23 11:10pm 289 0 G 1 67° 69% - - 56° 85.6° 59.1° - - 885.0
5/23 11:00pm 289 0 G 2 67° 69% - - 57° 85.6° 59.1° - - 885.0
5/23 10:50pm 292 1 G 3 67° 69% - - 57° 85.6° 59.1° - - 885.0
5/23 10:40pm 342 1 G 1 67° 70% - - 57° 85.6° 59.1° - - 886.0
5/23 10:30pm 321 1 G 2 66° 71% - - 57° 85.6° 59.1° - - 886.0
5/23 10:20pm 96 0 G 0 66° 71% - - 57° 85.6° 59.1° - - 886.0
5/23 10:10pm 71 0 G 1 66° 71% - - 57° 85.6° 59.1° - - 886.0
5/23 10:00pm 90 0 G 1 67° 69% - - 56° 85.6° 59.1° - - 885.0
5/23 9:50pm 72 1 G 2 67° 68% - - 56° 85.6° 59.1° - - 885.0
5/23 9:40pm 60 2 G 4 68° 65% - - 56° 85.6° 59.1° - - 884.0
5/23 9:30pm 55 2 G 4 69° 61% - - 55° 85.6° 59.1° - - 883.0
5/23 9:20pm 353 2 G 3 70° 60% - - 55° 85.6° 59.1° - - 882.0
5/23 9:10pm 347 2 G 2 70° 61% - - 55° 85.6° 59.1° - - 883.0
5/23 9:00pm 316 2 G 4 70° 60% - - 56° 85.6° 59.1° - - 883.0
5/23 8:50pm 325 3 G 4 70° 60% - - 56° 85.6° 59.1° - - 883.0
5/23 8:40pm 314 3 G 4 71° 58% - - 55° 85.6° 59.1° - - 882.0
5/23 8:30pm 300 3 G 4 71° 58% - - 56° 85.6° 59.1° - - 882.0
5/23 8:20pm 304 2 G 4 71° 58% - - 56° 85.6° 59.1° - - 882.0
5/23 8:10pm 289 3 G 4 72° 57% - - 55° 85.6° 59.1° - - 882.0
5/23 8:00pm 306 2 G 3 72° 57% - - 56° 85.6° 59.1° - - 883.0
5/23 7:50pm 247 0 G 2 72° 56% - - 55° 85.6° 59.1° - - 882.0
5/23 7:40pm 135 1 G 2 72° 55% - - 55° 85.6° 59.1° - - 882.0
5/23 7:30pm 316 1 G 2 74° 52% - - 55° 85.6° 59.1° - - 881.0
5/23 7:20pm 288 3 G 5 74° 51% - - 55° 85.6° 59.1° - - 881.0
5/23 7:10pm 295 3 G 5 74° 51% - - 55° 85.6° 59.1° - - 881.0
5/23 7:00pm 205 2 G 4 74° 52% - - 55° 85.6° 59.1° - - 882.0
5/23 6:50pm 218 4 G 10 75° 50% - - 55° 85.6° 59.1° - - 881.0
5/23 6:40pm 280 8 G 11 75° 48% - - 54° 85.6° 59.1° - - 881.0
5/23 6:30pm 268 5 G 11 76° 47% - - 54° 85.6° 59.1° - - 881.0
5/23 6:20pm 265 8 G 14 76° 46% - - 54° 85.6° 59.1° - - 881.0
5/23 6:10pm 276 12 G 18 76° 46% - - 54° 85.6° 59.1° - - 881.0
5/23 6:00pm 277 14 G 19 77° 45% - - 54° 85.6° 59.1° - - 881.0
5/23 5:50pm 282 13 G 18 79° 41% - - 53° 85.6° 59.1° - - 880.0
5/23 5:40pm 282 12 G 17 81° 33% - - 49° 85.6° 59.1° - - 877.0
5/23 5:30pm 284 10 G 14 82° 29% - - 47° 85.6° 59.1° - - 876.0
5/23 5:20pm 302 8 G 12 82° 30% - - 48° 85.6° 59.1° - - 877.0
5/23 5:10pm 285 8 G 12 82° 31% - - 48° 85.6° 59.1° - - 877.0
5/23 5:00pm 305 7 G 11 82° 31% - - 49° 85.6° 59.1° - - 877.0
5/23 4:50pm 299 7 G 10 82° 32% - - 49° 85.6° 59.1° - - 877.0
5/23 4:40pm 321 6 G 12 82° 32% - - 49° 85.6° 59.1° - - 877.0
5/23 4:30pm 292 6 G 8 81° 32% - - 48° 85.6° 59.1° - - 877.0
5/23 4:20pm 294 7 G 11 81° 31% - - 47° 85.6° 59.1° - - 877.0
5/23 4:10pm 311 7 G 11 80° 32% - - 48° 85.6° 59.1° - - 877.0
5/23 4:00pm 311 7 G 11 81° 31% - - 48° 85.6° 59.1° - - 877.0
5/23 3:50pm 321 5 G 12 81° 34% - - 51° 85.6° 59.1° - - 878.0
5/23 3:40pm 292 7 G 10 79° 36% - - 50° 85.6° 59.1° - - 878.0
5/23 3:30pm 299 6 G 10 79° 38% - - 51° 85.6° 59.1° - - 879.0
5/23 3:20pm 273 4 G 9 78° 46% - - 56° 85.6° 59.1° - - 881.0
5/23 3:10pm 280 6 G 10 78° 47% - - 56° 85.6° 59.1° - - 881.0
5/23 3:00pm 245 6 G 12 77° 49% - - 56° 85.6° 59.1° - - 882.0
5/23 2:50pm 260 6 G 9 76° 51% - - 57° 85.6° 59.1° - - 883.0
5/23 2:40pm 269 9 G 14 75° 53% - - 57° 85.6° 59.1° - - 883.0
5/23 2:30pm 261 10 G 14 75° 53% - - 57° 85.6° 59.1° - - 883.0
5/23 2:20pm 279 10 G 15 75° 53% - - 57° 85.6° 59.1° - - 883.0
5/23 2:10pm 268 10 G 14 74° 55% - - 57° 85.6° 59.1° - - 884.0
5/23 2:00pm 273 11 G 15 74° 55% - - 57° 85.6° 59.1° - - 884.0
5/23 1:50pm 277 11 G 16 75° 55% - - 57° 85.6° 59.1° - - 884.0
5/23 1:40pm 270 12 G 16 75° 54% - - 57° 85.6° 59.1° - - 883.0
5/23 1:30pm 269 10 G 17 75° 54% - - 57° 85.6° 59.1° - - 884.0
5/23 1:20pm 270 10 G 17 76° 53% - - 57° 85.6° 59.1° - - 884.0
5/23 1:10pm 279 10 G 15 76° 53% - - 57° 85.6° 59.1° - - 883.0
5/23 1:00pm 269 11 G 19 76° 53% - - 57° 85.6° 59.1° - - 883.0
5/23 12:50pm 272 11 G 16 76° 51% - - 57° 85.6° 59.1° - - 883.0
5/23 12:40pm 271 12 G 19 76° 52% - - 57° 85.6° 59.1° - - 884.0
5/23 12:30pm 273 13 G 21 77° 50% - - 57° 85.6° 59.1° - - 883.0
5/23 12:20pm 276 14 G 19 77° 49% - - 57° 85.6° 59.1° - - 883.0
5/23 12:10pm 268 15 G 23 78° 46% - - 56° 85.6° 59.1° - - 882.0
5/23 12:00pm 271 13 G 17 79° 44% - - 55° 85.6° 59.1° - - 882.0
5/23 11:50am 273 11 G 16 80° 41% - - 54° 85.6° 59.1° - - 881.0
5/23 11:40am 273 11 G 17 82° 31% - - 48° 85.6° 59.1° - - 878.0
5/23 11:30am 272 11 G 15 82° 23% - - 41° 85.6° 59.1° - - 876.0
5/23 11:20am 274 11 G 15 82° 24% - - 41° 85.6° 59.1° - - 876.0
5/23 11:10am 277 11 G 14 82° 25% - - 42° 85.6° 59.1° - - 877.0
5/23 11:00am 280 10 G 13 82° 28% - - 46° 85.6° 59.1° - - 879.0
5/23 10:50am 264 5 G 12 85° 28% - - 48° 85.6° 59.1° - - 879.0
5/23 10:40am 161 3 G 8 85° 23% - - 44° 85.6° 59.1° - - 877.0
5/23 10:30am 140 4 G 8 84° 22% - - 41° 85° 59.1° - - 876.0
5/23 10:20am 134 2 G 5 84° 22% - - 42° 85° 59.1° - - 876.0
5/23 10:10am 158 2 G 5 83° 23% - - 42° 84° 59.1° - - 876.0
5/23 10:00am 146 2 G 5 82° 25% - - 42° 83.5° 59.1° - - 876.0
5/23 9:50am 139 3 G 6 81° 26% - - 42° 81.3° 59.1° - - 876.0
5/23 9:40am 138 4 G 5 80° 27% - - 43° 80.4° 59.1° - - 876.0
5/23 9:30am 141 3 G 5 79° 28% - - 43° 80.1° 59.1° - - 876.0
5/23 9:20am 125 3 G 5 79° 28% - - 43° 79.5° 59.1° - - 875.0
5/23 9:10am 140 3 G 5 79° 26% - - 41° 78.9° 59.1° - - 874.0
5/23 9:00am 136 2 G 4 78° 26% - - 41° 78.6° 59.1° - - 874.0
5/23 8:50am 154 1 G 3 77° 26% - - 40° 78.1° 59.1° - - 873.0
5/23 8:40am 148 2 G 3 76° 30% - - 42° 76.6° 59.1° - - 874.0
5/23 8:30am 103 1 G 3 75° 31% - - 42° 75.9° 59.1° - - 873.0
5/23 8:20am 136 1 G 3 75° 32% - - 43° 75.4° 59.1° - - 873.0
5/23 8:10am 146 1 G 2 73° 35% - - 43° 73.8° 59.1° - - 873.0
5/23 8:00am 337 0 G 1 71° 42% - - 47° 72° 59.1° - - 876.0
5/23 7:50am 0 0 G 0 71° 40% - - 46° 71.9° 59.1° - - 875.0
5/23 7:40am 140 0 G 1 71° 41% - - 46° 71.4° 59.1° - - 874.0
5/23 7:30am 79 0 G 1 69° 35% - - 41° 70.2° 59.1° - - 872.0
5/23 7:20am 337 1 G 1 70° 31% - - 38° 70.2° 59.1° - - 870.0
5/23 7:10am 337 1 G 2 69° 33% - - 38° 69.6° 59.1° - - 871.0
5/23 7:00am 337 2 G 2 68° 34% - - 39° 69° 59.1° - - 871.0
5/23 6:50am 342 1 G 2 69° 33% - - 38° 69° 59.1° - - 871.0
5/23 6:40am 336 0 G 1 68° 31% - - 36° 68.8° 59.1° - - 870.0
5/23 6:30am 24 1 G 2 68° 31% - - 37° 68.8° 59.1° - - 870.0
5/23 6:20am 84 2 G 3 68° 31% - - 36° 68.2° 59.1° - - 870.0
5/23 6:10am 44 2 G 3 67° 33% - - 37° 67.7° 59.1° - - 870.0
5/23 6:00am 52 2 G 3 67° 33% - - 37° 67.7° 59.1° - - 870.0